CST,Max TemperatureF,Mean TemperatureF,Min TemperatureF,Max Dew PointF,MeanDew PointF,Min DewpointF,Max Humidity, Mean Humidity, Min Humidity, Max Sea Level PressureIn, Mean Sea Level PressureIn, Min Sea Level PressureIn, Max VisibilityMiles, Mean VisibilityMiles, Min VisibilityMiles, Max Wind SpeedMPH, Mean Wind SpeedMPH, Max Gust SpeedMPH,PrecipitationIn, CloudCover, Events, WindDirDegrees
2011-11-1,53,44,35,43,37,34,100,79,54,29.98,29.86,29.81,10,9,3,8,2,,0.04,4,Rain,266
2011-11-2,51,38,24,36,30,23,100,77,41,30.19,30.11,30.01,10,10,10,10,1,17,0.00,1,,336
2011-11-3,51,32,14,28,19,12,100,68,26,30.21,30.18,30.15,10,10,10,10,1,,0.00,0,,242
2011-11-4,50,32,15,32,23,12,100,76,32,30.23,30.16,30.04,10,10,10,8,1,,0.00,0,,145
2011-11-5,51,42,33,39,34,25,87,71,58,30.04,29.90,29.74,10,10,10,14,7,20,0.00,0,,176
2011-11-6,51,48,44,43,40,30,87,76,53,29.74,29.61,29.49,10,9,7,18,7,29,0.00,0,,183
2011-11-7,44,40,33,25,22,19,70,52,45,30.12,29.92,29.75,10,10,10,14,10,26,0.00,1,,253
2011-11-8,48,32,17,28,22,16,100,79,30,30.18,30.16,30.13,10,10,10,9,1,,0.00,0,,158
2011-11-9,42,30,19,32,24,18,100,80,49,30.15,29.97,29.80,10,10,10,12,1,23,0.00,1,,317
2011-11-10,37,34,30,28,25,19,81,72,60,29.91,29.84,29.74,10,10,3,12,6,20,0.00,2,Snow,308
2011-11-11,44,30,15,28,20,12,100,72,39,29.86,29.62,29.46,10,10,2,20,3,25,0.00,2,Snow,223
2011-11-12,46,34,23,36,30,21,93,79,57,29.53,29.45,29.25,10,10,10,12,4,18,0.00,0,,61
2011-11-13,51,38,26,36,29,25,100,77,41,29.31,29.16,29.08,10,9,5,12,2,20,0.00,1,,283
2011-11-14,46,32,19,34,27,18,100,80,50,29.44,29.34,29.28,10,9,4,10,2,17,0.02,2,Rain-Thunderstorm,233
2011-11-15,44,34,23,34,27,21,100,84,39,29.60,29.53,29.50,10,8,1,13,2,21,0.13,2,Snow,253
2011-11-16,28,24,19,25,16,9,86,73,59,29.97,29.85,29.64,10,9,0,13,6,24,0.00,5,Snow,271
2011-11-17,26,16,6,16,10,1,85,66,46,30.00,29.97,29.94,10,10,7,10,6,18,0.00,2,Snow,281
2011-11-18,30,22,14,25,19,9,86,75,59,29.90,29.73,29.66,10,8,1,15,5,23,0.04,5,Snow,72
2011-11-19,30,24,19,27,18,10,93,74,64,29.99,29.81,29.68,10,10,5,13,3,21,0.00,3,,342
2011-11-20,23,12,1,9,3,-2,85,70,39,30.31,30.25,30.10,10,10,7,8,1,,0.00,2,Snow,265
2011-11-21,30,19,8,18,12,3,86,76,55,30.25,30.22,30.18,10,9,5,9,3,17,0.00,4,,245
2011-11-22,33,27,21,27,23,18,93,83,75,30.22,30.10,29.99,7,6,4,8,1,,0.00,3,,211
2011-11-23,42,36,30,30,28,27,93,78,61,29.99,29.94,29.89,10,5,3,12,5,17,0.00,4,,238
2011-11-24,48,37,26,34,30,25,100,75,50,29.88,29.74,29.66,10,6,1,13,4,23,0.00,1,,233
2011-11-25,44,35,26,34,29,23,93,81,57,29.79,29.70,29.64,10,7,2,15,3,23,0.00,1,,60
2011-11-26,37,34,30,34,29,21,93,82,69,29.89,29.79,29.74,10,7,2,20,12,26,0.24,7,Rain-Snow,21
2011-11-27,28,24,21,21,17,16,80,71,64,30.14,30.08,29.93,10,10,10,15,8,31,0.00,2,,334
2011-11-28,37,30,24,25,20,18,80,68,45,30.09,29.99,29.89,10,10,10,16,7,24,0.00,3,,247
2011-11-29,35,24,10,16,10,1,85,57,24,30.31,30.21,30.05,10,10,10,10,3,18,0.00,0,,338
2011-11-30,33,20,6,27,15,1,93,75,48,30.02,29.90,29.85,10,8,1,4,0,,0.04,3,Snow,54